createdAt,value
2019-03-06T00:01:58.101Z,9.27
2019-03-06T00:07:00.902Z,10.03
2019-03-06T00:12:04.072Z,9.70
2019-03-06T00:17:10.032Z,9.13
2019-03-06T00:22:12.874Z,10.10
2019-03-06T00:27:15.737Z,10.30
2019-03-06T00:32:19.574Z,10.53
2019-03-06T00:37:22.481Z,10.17
2019-03-06T00:42:25.430Z,10.50
2019-03-06T00:47:28.300Z,10.57
2019-03-06T00:52:35.638Z,10.50
2019-03-06T00:57:38.650Z,10.60
2019-03-06T01:02:41.596Z,10.33
2019-03-06T01:07:44.579Z,9.87
2019-03-06T01:12:47.620Z,9.47
2019-03-06T01:17:50.695Z,10.20
2019-03-06T01:23:05.600Z,10.10
2019-03-06T01:28:20.948Z,9.57
2019-03-06T01:34:00.203Z,11.37
2019-03-06T01:39:34.236Z,11.00
2019-03-06T01:44:46.866Z,10.27
2019-03-06T01:50:01.575Z,10.80
2019-03-06T01:55:15.365Z,10.93
2019-03-06T02:00:26.381Z,12.30
2019-03-06T02:05:34.002Z,10.83
2019-03-06T02:10:56.762Z,10.83
2019-03-06T02:16:08.982Z,10.90
2019-03-06T02:21:36.663Z,10.70
2019-03-06T02:26:43.223Z,11.50
2019-03-06T02:31:53.236Z,12.00
2019-03-06T02:37:03.978Z,10.63
2019-03-06T02:42:10.097Z,11.50
2019-03-06T02:47:21.763Z,11.27
2019-03-06T02:52:26.080Z,11.00
2019-03-06T02:57:37.547Z,10.90
2019-03-06T03:03:05.741Z,11.00
2019-03-06T03:08:09.903Z,10.70
2019-03-06T03:13:16.355Z,11.70
2019-03-06T03:18:23.247Z,11.20
2019-03-06T03:23:32.913Z,11.37
2019-03-06T03:28:44.368Z,13.07
2019-03-06T03:33:52.555Z,13.60
2019-03-06T03:38:59.748Z,13.33
2019-03-06T03:44:05.721Z,13.40
2019-03-06T03:49:12.571Z,16.27
2019-03-06T03:54:27.188Z,19.20
2019-03-06T03:59:34.935Z,18.13
2019-03-06T04:04:44.320Z,18.37
2019-03-06T04:09:52.792Z,15.93
2019-03-06T04:14:57.737Z,16.60
2019-03-06T04:20:01.672Z,16.40
2019-03-06T04:25:07.846Z,15.90
2019-03-06T04:30:14.746Z,17.10
2019-03-06T04:35:19.368Z,16.30
2019-03-06T04:40:23.616Z,16.03
2019-03-06T04:45:33.384Z,17.60
2019-03-06T04:50:38.414Z,16.80
2019-03-06T04:55:47.583Z,17.97
2019-03-06T05:00:58.323Z,16.07
2019-03-06T05:06:02.808Z,16.27
2019-03-06T05:11:16.050Z,16.97
2019-03-06T05:16:32.370Z,16.93
2019-03-06T05:21:37.626Z,15.50
2019-03-06T05:26:58.533Z,17.67
2019-03-06T05:32:31.865Z,16.10
2019-03-06T05:38:01.091Z,16.83
2019-03-06T05:43:10.066Z,16.87
2019-03-06T05:48:16.729Z,15.77
2019-03-06T05:53:27.411Z,16.27
2019-03-06T05:58:34.409Z,15.97
2019-03-06T06:03:40.590Z,14.37
2019-03-06T06:09:05.822Z,14.20
2019-03-06T06:14:11.679Z,14.57
2019-03-06T06:19:26.768Z,14.30
2019-03-06T06:24:39.190Z,14.23
2019-03-06T06:29:58.484Z,13.43
2019-03-06T06:35:00.390Z,13.83
2019-03-06T06:40:18.001Z,13.73
2019-03-06T06:45:23.260Z,12.63
2019-03-06T06:50:27.390Z,12.37
2019-03-06T06:56:13.505Z,13.27
2019-03-06T07:02:27.473Z,12.80
2019-03-06T07:07:52.084Z,13.23
2019-03-06T07:13:27.472Z,11.30
2019-03-06T07:18:42.027Z,12.47
2019-03-06T07:24:06.429Z,13.17
2019-03-06T07:29:47.256Z,11.30
2019-03-06T07:36:04.367Z,10.33
2019-03-06T07:41:34.090Z,10.10
2019-03-06T07:46:58.916Z,9.60
2019-03-06T07:52:25.365Z,11.27
2019-03-06T07:57:51.083Z,10.73
2019-03-06T08:03:17.250Z,10.00
2019-03-06T08:08:23.123Z,10.00
2019-03-06T08:13:38.416Z,10.10
2019-03-06T08:18:58.481Z,10.80
2019-03-06T08:24:23.956Z,9.53
2019-03-06T08:29:34.074Z,10.90
2019-03-06T08:34:49.959Z,9.80
2019-03-06T08:40:13.413Z,11.10
2019-03-06T08:45:23.687Z,10.20
2019-03-06T08:50:48.677Z,10.00
2019-03-06T08:56:09.503Z,9.87
2019-03-06T09:02:00.107Z,9.37
2019-03-06T09:07:15.757Z,9.70
2019-03-06T09:12:36.445Z,9.70
2019-03-06T09:18:09.347Z,9.57
2019-03-06T09:23:34.557Z,9.90
2019-03-06T09:28:48.111Z,9.87
2019-03-06T09:34:22.730Z,9.70
2019-03-06T09:39:50.823Z,9.30
2019-03-06T09:45:18.126Z,9.40
2019-03-06T09:50:32.488Z,10.50
2019-03-06T09:55:53.211Z,9.33
2019-03-06T10:01:17.033Z,9.13
2019-03-06T10:06:39.312Z,10.83
2019-03-06T10:11:54.547Z,10.60
2019-03-06T10:17:12.605Z,11.30
2019-03-06T10:22:15.486Z,10.20
2019-03-06T10:27:18.307Z,9.37
2019-03-06T10:32:23.963Z,9.30
2019-03-06T10:37:26.865Z,8.90
2019-03-06T10:42:32.743Z,9.03
2019-03-06T10:47:38.653Z,9.43
2019-03-06T10:52:41.483Z,9.17
2019-03-06T10:57:53.427Z,8.57
2019-03-06T11:02:57.003Z,7.87
2019-03-06T11:08:01.199Z,8.20
2019-03-06T11:13:08.731Z,7.63
2019-03-06T11:18:11.829Z,8.47
2019-03-06T11:23:15.079Z,8.40
2019-03-06T11:28:18.121Z,8.13
2019-03-06T11:33:22.055Z,7.50
2019-03-06T11:38:28.516Z,8.20
2019-03-06T11:43:31.441Z,7.30
2019-03-06T11:48:34.291Z,6.90
2019-03-06T11:53:37.196Z,7.40
2019-03-06T11:58:40.138Z,7.23
2019-03-06T12:03:44.462Z,7.27
2019-03-06T12:08:47.331Z,7.10
2019-03-06T12:13:50.154Z,6.43
2019-03-06T12:18:52.978Z,7.23
2019-03-06T12:23:55.830Z,5.97
2019-03-06T12:28:58.742Z,6.03
2019-03-06T12:34:01.595Z,6.40
2019-03-06T12:39:11.547Z,6.90
2019-03-06T12:44:20.286Z,6.80
2019-03-06T12:49:25.209Z,7.20
2019-03-06T12:54:31.125Z,6.07
2019-03-06T12:59:33.941Z,6.60
2019-03-06T13:04:36.848Z,6.03
2019-03-06T13:09:39.699Z,7.27
2019-03-06T13:14:42.616Z,6.07
2019-03-06T13:19:48.587Z,6.30
2019-03-06T13:24:57.344Z,6.40
2019-03-06T13:30:00.311Z,6.47
2019-03-06T13:35:05.219Z,6.77
2019-03-06T13:40:08.150Z,6.87
2019-03-06T13:45:18.176Z,6.80
2019-03-06T13:50:21.438Z,6.77
2019-03-06T13:55:24.271Z,7.13
2019-03-06T14:00:27.126Z,6.90
2019-03-06T14:05:30.247Z,6.90
2019-03-06T14:10:33.163Z,7.70
2019-03-06T14:15:39.214Z,7.73
2019-03-06T14:20:42.106Z,6.70
2019-03-06T14:25:45.278Z,6.10
2019-03-06T14:30:48.130Z,6.43
2019-03-06T14:35:50.984Z,5.73
2019-03-06T14:40:59.903Z,5.70
2019-03-06T14:46:06.122Z,5.50
2019-03-06T14:51:09.151Z,5.30
2019-03-06T14:56:16.509Z,5.30
2019-03-06T15:01:19.672Z,5.40
2019-03-06T15:06:22.519Z,4.90
2019-03-06T15:11:32.932Z,5.33
2019-03-06T15:16:30.053Z,4.43
2019-03-06T15:21:35.776Z,5.37
2019-03-06T15:26:38.626Z,5.27
2019-03-06T15:31:42.068Z,5.30
2019-03-06T15:36:45.207Z,4.10
2019-03-06T15:41:48.101Z,4.07
2019-03-06T15:46:50.973Z,4.00
2019-03-06T15:51:53.907Z,4.27
2019-03-06T15:56:56.717Z,4.53
2019-03-06T16:01:59.644Z,4.23
2019-03-06T16:07:02.773Z,4.27
2019-03-06T16:12:05.814Z,4.37
2019-03-06T16:17:21.374Z,4.30
2019-03-06T16:22:24.347Z,4.13
2019-03-06T16:27:27.385Z,4.50
2019-03-06T16:32:30.228Z,4.60
2019-03-06T16:37:33.121Z,4.90
2019-03-06T16:42:41.848Z,5.00
2019-03-06T16:47:44.775Z,4.47
2019-03-06T16:52:51.044Z,8.03
2019-03-06T16:57:55.019Z,4.63
2019-03-06T17:02:58.666Z,4.90
2019-03-06T17:08:01.756Z,4.77
2019-03-06T17:13:04.690Z,5.07
2019-03-06T17:18:07.716Z,4.90
2019-03-06T17:23:10.534Z,5.20
2019-03-06T17:28:16.555Z,4.83
2019-03-06T17:33:19.631Z,5.50
2019-03-06T17:38:22.581Z,4.70
2019-03-06T17:43:25.519Z,5.97
2019-03-06T17:48:28.512Z,5.07
2019-03-06T17:53:35.628Z,5.77
2019-03-06T17:58:41.225Z,5.00
2019-03-06T18:03:57.059Z,5.70
2019-03-06T18:08:59.881Z,4.97
2019-03-06T18:14:04.557Z,5.60
2019-03-06T18:19:07.335Z,5.00
2019-03-06T18:24:10.265Z,5.20
2019-03-06T18:29:14.724Z,4.50
2019-03-06T18:34:17.966Z,6.37
2019-03-06T18:39:25.171Z,10.50
2019-03-06T18:44:28.226Z,5.43
2019-03-06T18:49:31.037Z,5.30
2019-03-06T18:54:33.846Z,5.30
2019-03-06T18:59:36.766Z,4.40
2019-03-06T19:04:39.569Z,5.40
2019-03-06T19:09:42.777Z,5.27
2019-03-06T19:14:49.331Z,5.73
2019-03-06T19:19:52.860Z,5.20
2019-03-06T19:24:55.671Z,5.10
2019-03-06T19:29:58.444Z,5.90
2019-03-06T19:35:01.312Z,5.27
2019-03-06T19:40:04.623Z,5.83
2019-03-06T19:45:08.756Z,6.13
2019-03-06T19:50:14.209Z,6.27
2019-03-06T19:55:17.996Z,5.37
2019-03-06T20:00:21.710Z,6.17
2019-03-06T20:05:27.963Z,6.60
2019-03-06T20:10:34.683Z,5.40
2019-03-06T20:15:40.737Z,5.63
2019-03-06T20:20:43.556Z,6.07
2019-03-06T20:25:48.568Z,5.77
2019-03-06T20:30:57.517Z,5.10
2019-03-06T20:36:00.351Z,5.37
2019-03-06T20:41:03.773Z,4.93
2019-03-06T20:46:06.567Z,5.83
2019-03-06T20:51:09.361Z,4.90
2019-03-06T20:56:12.171Z,5.50
2019-03-06T21:01:14.971Z,4.90
2019-03-06T21:06:18.277Z,4.90
2019-03-06T21:11:21.113Z,5.40
2019-03-06T21:16:23.945Z,6.00
2019-03-06T21:21:29.562Z,5.10
2019-03-06T21:26:32.400Z,5.47
2019-03-06T21:31:35.534Z,5.30
2019-03-06T21:36:39.089Z,5.87
2019-03-06T21:41:41.885Z,5.83
2019-03-06T21:46:44.716Z,5.80
2019-03-06T21:51:48.056Z,5.20
2019-03-06T21:56:51.155Z,5.53
2019-03-06T22:01:54.074Z,5.30
2019-03-06T22:06:56.971Z,5.43
2019-03-06T22:11:59.830Z,4.80
2019-03-06T22:17:03.096Z,5.50
2019-03-06T22:22:06.117Z,5.03
2019-03-06T22:27:08.954Z,5.30
2019-03-06T22:32:12.367Z,5.47
2019-03-06T22:37:15.825Z,5.07
2019-03-06T22:42:18.737Z,4.70
2019-03-06T22:47:21.550Z,4.07
2019-03-06T22:52:30.270Z,4.30
2019-03-06T22:57:33.128Z,4.30
2019-03-06T23:02:36.653Z,4.10
2019-03-06T23:07:41.804Z,3.73
2019-03-06T23:12:44.624Z,4.10
2019-03-06T23:17:47.510Z,3.80
2019-03-06T23:22:51.040Z,3.83
2019-03-06T23:27:53.894Z,3.43
2019-03-06T23:32:56.690Z,3.57
2019-03-06T23:37:59.854Z,3.83
2019-03-06T23:43:03.251Z,3.50
2019-03-06T23:48:06.070Z,3.60
2019-03-06T23:53:10.653Z,3.67
2019-03-06T23:58:13.787Z,3.73
